Todos
Fisher County Airport (Rotan/Roby, TX) 56F Condiciones meteorológicas
There is no TAF data available at 56F or any nearby airports.
There is no METAR data available at 56F. Showing METAR data for KSWW (25 mi S).
Historial METAR SWW reciente (no hay datos para 56F)
| Date | Time (CDT) | Flight Rules | Wind Dir. | Speed | Type | Height AGL (ft) | Visibility | Temp (°C) | Temp (°F) | Dew Point (°C) | Dew Point (°F) | Rel. Humid. | Pressure | Density Altitude | Remarks |
|---|---|---|---|---|---|---|---|---|---|---|---|---|---|---|---|
| 04-sep | 10:35PM | VFR | 180° | 12 kt | 10 miles | 26° | 78° | 19° | 66° | 65% | 30.00 in Hg | 4.094 ft | |||
| 04-sep | 10:15PM | VFR | 180° | 9 kt | 10 miles | 26° | 78° | 20° | 68° | 67% | 30.00 in Hg | 4.094 ft | |||
| 04-sep | 09:55PM | VFR | 180° | 9 kt | 10 miles | 26° | 78° | 20° | 68° | 67% | 29.98 in Hg | 4.114 ft | |||
| 04-sep | 09:35PM | VFR | 170° | 10 kt | 10 miles | 26° | 78° | 19° | 66° | 65% | 29.97 in Hg | 4.124 ft | |||
| 04-sep | 09:15PM | VFR | 160° | 8 kt | 10 miles | 27° | 80° | 19° | 66° | 63% | 29.97 in Hg | 4.244 ft | |||
| 04-sep | 08:55PM | VFR | 150° | 8 kt | 10 miles | 27° | 80° | 19° | 66° | 64% | 29.96 in Hg | 4.254 ft | |||
| 04-sep | 08:35PM | VFR | 190° | 6 kt | 10 miles | 27° | 80° | 19° | 66° | 61% | 29.96 in Hg | 4.254 ft | |||
| 04-sep | 08:15PM | VFR | 210° | 7 kt | 10 miles | 27° | 80° | 19° | 66° | 62% | 29.96 in Hg | 4.254 ft | |||
| 04-sep | 07:55PM | VFR | 270° | 6 kt | 10 miles | 28° | 82° | 19° | 66° | 60% | 29.97 in Hg | 4.364 ft | |||
| 04-sep | 07:15PM | VFR | 160° | 8 kt | 10 miles | 29° | 84° | 19° | 66° | 57% | 29.95 in Hg | 4.504 ft | |||
| 04-sep | 06:55PM | VFR | 180° | 10 kt | 10 miles | 29° | 84° | 18° | 64° | 53% | 29.94 in Hg | 4.514 ft | |||
| 04-sep | 06:35PM | VFR | 170° | 9 kt | 10 miles | 28° | 82° | 18° | 64° | 52% | 29.95 in Hg | 4.384 ft | |||
| 04-sep | 06:15PM | VFR | 160° | 7 kt | 10 miles | 28° | 82° | 17° | 62° | 53% | 29.95 in Hg | 4.384 ft | |||
| 04-sep | 05:55PM | VFR | 170° | 8 kt | 10 miles | 27° | 80° | 19° | 66° | 62% | 29.92 in Hg | 4.294 ft | |||
| 04-sep | 05:35PM | VFR | 130° | 5 kt | 10 miles | 27° | 80° | 19° | 66° | 61% | 29.91 in Hg | 4.304 ft | |||
| 04-sep | 05:15PM | VFR | 150° | 11 kt | 10 miles | 26° | 78° | 20° | 68° | 67% | 29.91 in Hg | 4.184 ft | |||
| 04-sep | 04:55PM | VFR | 140° | 11 kt | 10 miles |
26° | 78° | 21° | 69° | 73% | 29.93 in Hg | 4.164 ft | Thunderstorms, Wind gusting to 21 KT | ||
| 04-sep | 04:15PM | MVFR | 100° | 15 kt | 4 miles |
25° | 77° | 20° | 68° | 71% | 29.93 in Hg | 4.044 ft | Wind gusting to 19 KT | ||
| 04-sep | 03:55PM | VFR | 110° | 20 kt | 7 miles |
33° | 91° | 20° | 68° | 46% | 29.93 in Hg | 5.004 ft | Wind gusting to 27 KT | ||
| 04-sep | 03:35PM | VFR | 50° | 3 kt | 10 miles | 42° | 107° | 14° | 57° | 20% | 29.93 in Hg | 6.084 ft | |||
| 04-sep | 03:15PM | VFR | 240° | 5 kt | 10 miles | 42° | 107° | 16° | 60° | 22% | 29.94 in Hg | 6.074 ft | |||
| 04-sep | 02:55PM | VFR | 230° | 7 kt | 10 miles | 41° | 105° | 16° | 60° | 24% | 29.95 in Hg | 5.944 ft | |||
| 04-sep | 02:35PM | VFR | Calm | 10 miles | 40° | 104° | 17° | 62° | 26% | 29.96 in Hg | 5.814 ft | ||||
| 04-sep | 02:15PM | VFR | 250° | 5 kt | 10 miles | 37° | 98° | 17° | 62° | 30% | 29.97 in Hg | 5.444 ft |
Entrar
| Tu navegador no está contemplado. eleva la categoría de tu navegador |
